sensor_id;sensor_type;location;lat;lon;timestamp;P1;durP1;ratioP1;P2;durP2;ratioP2
27039;SDS011;14589;51.578;7.306;2023-04-28T04:00:47;13.63;;;6.35;;
27039;SDS011;14589;51.578;7.306;2023-04-28T04:03:17;13.43;;;7.13;;
27039;SDS011;14589;51.578;7.306;2023-04-28T04:05:51;11.20;;;5.53;;
27039;SDS011;14589;51.578;7.306;2023-04-28T04:08:23;13.65;;;6.13;;
27039;SDS011;14589;51.578;7.306;2023-04-28T04:10:56;13.07;;;6.70;;
27039;SDS011;14589;51.578;7.306;2023-04-28T04:13:28;12.50;;;7.10;;
27039;SDS011;14589;51.578;7.306;2023-04-28T04:15:58;12.25;;;5.40;;
27039;SDS011;14589;51.578;7.306;2023-04-28T04:18:30;13.05;;;6.93;;
27039;SDS011;14589;51.578;7.306;2023-04-28T04:21:36;11.13;;;5.63;;
27039;SDS011;14589;51.578;7.306;2023-04-28T04:24:06;11.80;;;5.20;;
27039;SDS011;14589;51.578;7.306;2023-04-28T04:26:37;19.17;;;6.75;;
27039;SDS011;14589;51.578;7.306;2023-04-28T04:29:21;13.10;;;6.63;;
27039;SDS011;14589;51.578;7.306;2023-04-28T04:31:52;13.30;;;6.03;;
27039;SDS011;14589;51.578;7.306;2023-04-28T04:34:22;10.65;;;5.95;;
27039;SDS011;14589;51.578;7.306;2023-04-28T04:36:52;11.95;;;5.55;;
27039;SDS011;14589;51.578;7.306;2023-04-28T04:39:23;11.15;;;4.93;;
27039;SDS011;14589;51.578;7.306;2023-04-28T04:41:54;14.27;;;7.03;;
27039;SDS011;14589;51.578;7.306;2023-04-28T04:44:47;12.63;;;6.30;;
27039;SDS011;14589;51.578;7.306;2023-04-28T04:47:30;11.38;;;6.35;;
27039;SDS011;14589;51.578;7.306;2023-04-28T04:50:01;12.07;;;6.10;;
27039;SDS011;14589;51.578;7.306;2023-04-28T04:52:32;12.98;;;5.50;;
27039;SDS011;14589;51.578;7.306;2023-04-28T04:55:03;10.50;;;5.57;;
27039;SDS011;14589;51.578;7.306;2023-04-28T04:57:33;13.68;;;5.25;;
27039;SDS011;14589;51.578;7.306;2023-04-28T05:00:14;11.45;;;6.22;;
27039;SDS011;14589;51.578;7.306;2023-04-28T05:02:49;11.02;;;5.28;;
27039;SDS011;14589;51.578;7.306;2023-04-28T05:05:21;12.95;;;5.72;;
27039;SDS011;14589;51.578;7.306;2023-04-28T05:07:59;10.13;;;5.47;;
27039;SDS011;14589;51.578;7.306;2023-04-28T05:10:29;9.73;;;4.95;;
27039;SDS011;14589;51.578;7.306;2023-04-28T05:13:00;11.63;;;6.22;;
27039;SDS011;14589;51.578;7.306;2023-04-28T05:15:30;12.45;;;7.00;;
27039;SDS011;14589;51.578;7.306;2023-04-28T05:18:27;10.85;;;4.03;;
27039;SDS011;14589;51.578;7.306;2023-04-28T05:20:57;10.02;;;6.03;;
27039;SDS011;14589;51.578;7.306;2023-04-28T05:23:28;10.68;;;4.97;;
27039;SDS011;14589;51.578;7.306;2023-04-28T05:25:58;12.27;;;4.97;;
27039;SDS011;14589;51.578;7.306;2023-04-28T05:28:29;8.55;;;5.55;;
27039;SDS011;14589;51.578;7.306;2023-04-28T05:36:03;11.20;;;5.47;;
27039;SDS011;14589;51.578;7.306;2023-04-28T05:38:34;13.65;;;8.23;;
27039;SDS011;14589;51.578;7.306;2023-04-28T05:41:05;10.10;;;4.68;;
27039;SDS011;14589;51.578;7.306;2023-04-28T05:43:36;10.02;;;5.85;;
27039;SDS011;14589;51.578;7.306;2023-04-28T05:46:07;13.88;;;6.32;;
27039;SDS011;14589;51.578;7.306;2023-04-28T05:48:37;10.25;;;5.18;;
27039;SDS011;14589;51.578;7.306;2023-04-28T05:51:08;7.57;;;3.67;;
27039;SDS011;14589;51.578;7.306;2023-04-28T05:53:38;12.90;;;7.32;;
27039;SDS011;14589;51.578;7.306;2023-04-28T05:56:09;11.23;;;6.45;;
27039;SDS011;14589;51.578;7.306;2023-04-28T05:58:39;13.63;;;6.90;;
27039;SDS011;14589;51.578;7.306;2023-04-28T06:01:10;16.42;;;7.55;;
27039;SDS011;14589;51.578;7.306;2023-04-28T06:03:42;19.33;;;10.85;;
27039;SDS011;14589;51.578;7.306;2023-04-28T06:06:14;39.78;;;18.17;;
27039;SDS011;14589;51.578;7.306;2023-04-28T06:08:45;48.05;;;23.95;;
27039;SDS011;14589;51.578;7.306;2023-04-28T06:11:16;33.22;;;18.33;;
27039;SDS011;14589;51.578;7.306;2023-04-28T06:13:51;61.65;;;27.92;;
27039;SDS011;14589;51.578;7.306;2023-04-28T06:16:22;24.75;;;13.32;;
27039;SDS011;14589;51.578;7.306;2023-04-28T06:18:55;16.23;;;8.18;;
27039;SDS011;14589;51.578;7.306;2023-04-28T06:21:26;12.57;;;6.72;;
27039;SDS011;14589;51.578;7.306;2023-04-28T06:23:57;9.85;;;5.90;;
27039;SDS011;14589;51.578;7.306;2023-04-28T06:26:28;9.85;;;5.95;;
27039;SDS011;14589;51.578;7.306;2023-04-28T06:28:59;7.22;;;4.57;;
27039;SDS011;14589;51.578;7.306;2023-04-28T06:31:29;6.68;;;3.97;;
27039;SDS011;14589;51.578;7.306;2023-04-28T06:34:00;9.48;;;5.13;;
27039;SDS011;14589;51.578;7.306;2023-04-28T06:36:31;6.70;;;3.92;;
27039;SDS011;14589;51.578;7.306;2023-04-28T06:39:01;8.90;;;5.40;;
27039;SDS011;14589;51.578;7.306;2023-04-28T06:41:32;8.95;;;4.70;;
27039;SDS011;14589;51.578;7.306;2023-04-28T06:44:05;9.68;;;5.32;;
27039;SDS011;14589;51.578;7.306;2023-04-28T06:49:07;11.63;;;4.72;;
27039;SDS011;14589;51.578;7.306;2023-04-28T06:51:38;11.45;;;5.47;;
27039;SDS011;14589;51.578;7.306;2023-04-28T06:54:08;7.68;;;4.45;;
27039;SDS011;14589;51.578;7.306;2023-04-28T06:56:39;8.00;;;3.88;;
27039;SDS011;14589;51.578;7.306;2023-04-28T06:59:09;13.93;;;5.97;;
27039;SDS011;14589;51.578;7.306;2023-04-28T07:01:40;8.88;;;3.97;;
27039;SDS011;14589;51.578;7.306;2023-04-28T07:04:10;7.03;;;3.85;;
27039;SDS011;14589;51.578;7.306;2023-04-28T07:06:41;9.68;;;4.70;;
27039;SDS011;14589;51.578;7.306;2023-04-28T07:09:12;12.07;;;5.25;;
27039;SDS011;14589;51.578;7.306;2023-04-28T07:11:42;10.68;;;5.00;;
27039;SDS011;14589;51.578;7.306;2023-04-28T07:14:13;9.70;;;3.40;;
27039;SDS011;14589;51.578;7.306;2023-04-28T07:16:44;10.43;;;4.45;;
27039;SDS011;14589;51.578;7.306;2023-04-28T07:19:17;9.05;;;4.07;;
27039;SDS011;14589;51.578;7.306;2023-04-28T07:21:47;10.07;;;4.95;;
27039;SDS011;14589;51.578;7.306;2023-04-28T07:24:18;9.27;;;4.25;;
27039;SDS011;14589;51.578;7.306;2023-04-28T07:26:48;9.43;;;4.88;;
27039;SDS011;14589;51.578;7.306;2023-04-28T07:29:19;6.20;;;3.67;;
27039;SDS011;14589;51.578;7.306;2023-04-28T07:31:49;9.77;;;4.97;;
27039;SDS011;14589;51.578;7.306;2023-04-28T07:34:20;9.55;;;5.10;;
27039;SDS011;14589;51.578;7.306;2023-04-28T07:36:50;7.13;;;4.18;;
27039;SDS011;14589;51.578;7.306;2023-04-28T07:39:20;8.88;;;3.95;;
27039;SDS011;14589;51.578;7.306;2023-04-28T07:41:51;9.90;;;4.43;;
27039;SDS011;14589;51.578;7.306;2023-04-28T07:44:22;7.35;;;3.85;;
27039;SDS011;14589;51.578;7.306;2023-04-28T07:46:52;10.68;;;4.70;;
27039;SDS011;14589;51.578;7.306;2023-04-28T07:49:23;7.20;;;3.72;;
27039;SDS011;14589;51.578;7.306;2023-04-28T07:51:53;9.50;;;4.95;;
27039;SDS011;14589;51.578;7.306;2023-04-28T07:54:24;9.35;;;5.32;;
27039;SDS011;14589;51.578;7.306;2023-04-28T07:56:55;7.72;;;4.47;;
27039;SDS011;14589;51.578;7.306;2023-04-28T07:59:27;7.45;;;3.67;;
27039;SDS011;14589;51.578;7.306;2023-04-28T08:01:57;10.15;;;4.38;;
27039;SDS011;14589;51.578;7.306;2023-04-28T08:04:27;8.98;;;3.92;;
27039;SDS011;14589;51.578;7.306;2023-04-28T08:07:00;9.63;;;4.57;;
27039;SDS011;14589;51.578;7.306;2023-04-28T08:09:30;6.97;;;3.95;;
27039;SDS011;14589;51.578;7.306;2023-04-28T08:12:01;5.15;;;3.28;;
27039;SDS011;14589;51.578;7.306;2023-04-28T08:14:32;8.57;;;4.43;;
27039;SDS011;14589;51.578;7.306;2023-04-28T08:17:03;6.47;;;3.13;;
27039;SDS011;14589;51.578;7.306;2023-04-28T08:19:33;7.53;;;3.88;;
27039;SDS011;14589;51.578;7.306;2023-04-28T08:22:04;6.03;;;4.03;;
27039;SDS011;14589;51.578;7.306;2023-04-28T08:24:36;6.90;;;3.22;;
27039;SDS011;14589;51.578;7.306;2023-04-28T08:27:06;6.05;;;4.30;;
27039;SDS011;14589;51.578;7.306;2023-04-28T08:29:37;5.38;;;3.63;;
27039;SDS011;14589;51.578;7.306;2023-04-28T08:32:09;7.00;;;2.92;;
27039;SDS011;14589;51.578;7.306;2023-04-28T08:34:42;8.93;;;3.63;;
27039;SDS011;14589;51.578;7.306;2023-04-28T08:37:15;7.50;;;3.00;;
27039;SDS011;14589;51.578;7.306;2023-04-28T08:39:46;7.30;;;3.17;;
27039;SDS011;14589;51.578;7.306;2023-04-28T08:42:17;4.82;;;2.83;;
27039;SDS011;14589;51.578;7.306;2023-04-28T08:44:48;5.40;;;3.00;;
27039;SDS011;14589;51.578;7.306;2023-04-28T08:47:20;6.32;;;2.95;;
27039;SDS011;14589;51.578;7.306;2023-04-28T08:49:51;10.45;;;3.63;;
27039;SDS011;14589;51.578;7.306;2023-04-28T08:54:56;4.72;;;2.85;;
27039;SDS011;14589;51.578;7.306;2023-04-28T08:57:29;4.38;;;2.20;;
27039;SDS011;14589;51.578;7.306;2023-04-28T09:00:12;5.43;;;2.05;;
27039;SDS011;14589;51.578;7.306;2023-04-28T09:02:43;4.35;;;1.70;;
27039;SDS011;14589;51.578;7.306;2023-04-28T09:05:14;4.10;;;2.15;;
27039;SDS011;14589;51.578;7.306;2023-04-28T09:07:45;5.65;;;2.40;;
27039;SDS011;14589;51.578;7.306;2023-04-28T09:10:22;3.90;;;1.55;;
27039;SDS011;14589;51.578;7.306;2023-04-28T09:12:54;4.22;;;1.63;;
27039;SDS011;14589;51.578;7.306;2023-04-28T09:15:26;3.08;;;1.88;;
27039;SDS011;14589;51.578;7.306;2023-04-28T09:20:29;4.63;;;1.30;;
27039;SDS011;14589;51.578;7.306;2023-04-28T09:23:19;4.38;;;1.63;;
27039;SDS011;14589;51.578;7.306;2023-04-28T09:26:00;4.97;;;1.60;;
27039;SDS011;14589;51.578;7.306;2023-04-28T09:28:33;4.18;;;2.15;;
27039;SDS011;14589;51.578;7.306;2023-04-28T09:31:20;5.85;;;1.63;;
27039;SDS011;14589;51.578;7.306;2023-04-28T09:33:56;3.08;;;1.25;;
27039;SDS011;14589;51.578;7.306;2023-04-28T09:36:28;4.20;;;2.13;;
27039;SDS011;14589;51.578;7.306;2023-04-28T09:38:59;4.00;;;1.25;;
27039;SDS011;14589;51.578;7.306;2023-04-28T09:41:40;4.00;;;1.48;;
27039;SDS011;14589;51.578;7.306;2023-04-28T09:44:16;3.30;;;1.55;;
27039;SDS011;14589;51.578;7.306;2023-04-28T09:46:47;2.38;;;1.30;;
27039;SDS011;14589;51.578;7.306;2023-04-28T09:49:18;4.55;;;1.35;;
27039;SDS011;14589;51.578;7.306;2023-04-28T09:51:48;3.95;;;1.63;;
27039;SDS011;14589;51.578;7.306;2023-04-28T09:54:19;3.70;;;1.20;;
27039;SDS011;14589;51.578;7.306;2023-04-28T09:56:51;2.97;;;1.10;;
27039;SDS011;14589;51.578;7.306;2023-04-28T09:59:24;4.00;;;1.55;;
27039;SDS011;14589;51.578;7.306;2023-04-28T10:01:56;3.72;;;1.60;;
27039;SDS011;14589;51.578;7.306;2023-04-28T10:04:27;4.32;;;2.10;;
27039;SDS011;14589;51.578;7.306;2023-04-28T10:07:02;6.03;;;2.08;;
27039;SDS011;14589;51.578;7.306;2023-04-28T10:09:33;3.72;;;1.52;;
27039;SDS011;14589;51.578;7.306;2023-04-28T10:12:04;6.65;;;1.48;;
27039;SDS011;14589;51.578;7.306;2023-04-28T10:14:35;5.70;;;1.90;;
27039;SDS011;14589;51.578;7.306;2023-04-28T10:17:06;4.63;;;1.67;;
27039;SDS011;14589;51.578;7.306;2023-04-28T10:19:37;5.93;;;2.05;;
27039;SDS011;14589;51.578;7.306;2023-04-28T10:24:49;4.15;;;2.17;;
27039;SDS011;14589;51.578;7.306;2023-04-28T10:27:35;4.53;;;1.20;;
27039;SDS011;14589;51.578;7.306;2023-04-28T10:32:46;6.00;;;2.55;;
27039;SDS011;14589;51.578;7.306;2023-04-28T10:40:38;3.53;;;1.52;;
27039;SDS011;14589;51.578;7.306;2023-04-28T10:56:21;3.22;;;1.55;;
27039;SDS011;14589;51.578;7.306;2023-04-28T10:58:56;3.58;;;1.38;;
27039;SDS011;14589;51.578;7.306;2023-04-28T11:01:28;3.47;;;1.48;;
27039;SDS011;14589;51.578;7.306;2023-04-28T11:04:04;2.85;;;1.65;;
27039;SDS011;14589;51.578;7.306;2023-04-28T11:06:47;2.78;;;1.30;;
27039;SDS011;14589;51.578;7.306;2023-04-28T11:12:12;8.38;;;3.97;;
27039;SDS011;14589;51.578;7.306;2023-04-28T11:14:42;5.85;;;2.35;;
27039;SDS011;14589;51.578;7.306;2023-04-28T11:17:13;4.10;;;1.95;;
27039;SDS011;14589;51.578;7.306;2023-04-28T11:19:46;4.57;;;1.92;;
27039;SDS011;14589;51.578;7.306;2023-04-28T11:22:20;3.13;;;1.52;;
27039;SDS011;14589;51.578;7.306;2023-04-28T11:24:56;4.30;;;1.42;;
27039;SDS011;14589;51.578;7.306;2023-04-28T11:27:31;3.38;;;1.63;;
27039;SDS011;14589;51.578;7.306;2023-04-28T11:30:17;4.53;;;2.13;;
27039;SDS011;14589;51.578;7.306;2023-04-28T11:32:49;5.03;;;2.30;;
27039;SDS011;14589;51.578;7.306;2023-04-28T11:35:20;4.05;;;1.45;;
27039;SDS011;14589;51.578;7.306;2023-04-28T11:38:00;7.35;;;3.67;;
27039;SDS011;14589;51.578;7.306;2023-04-28T11:40:33;4.78;;;2.58;;
27039;SDS011;14589;51.578;7.306;2023-04-28T11:43:04;5.22;;;2.25;;
27039;SDS011;14589;51.578;7.306;2023-04-28T11:45:35;5.22;;;2.00;;
27039;SDS011;14589;51.578;7.306;2023-04-28T11:48:21;3.95;;;2.10;;
27039;SDS011;14589;51.578;7.306;2023-04-28T11:50:52;5.22;;;2.63;;
27039;SDS011;14589;51.578;7.306;2023-04-28T11:53:41;4.85;;;2.47;;
27039;SDS011;14589;51.578;7.306;2023-04-28T11:56:12;4.93;;;2.70;;
27039;SDS011;14589;51.578;7.306;2023-04-28T11:58:43;7.65;;;2.90;;
27039;SDS011;14589;51.578;7.306;2023-04-28T12:01:13;5.95;;;2.58;;
27039;SDS011;14589;51.578;7.306;2023-04-28T12:03:45;4.65;;;1.90;;
27039;SDS011;14589;51.578;7.306;2023-04-28T12:06:16;5.22;;;3.10;;
27039;SDS011;14589;51.578;7.306;2023-04-28T12:08:50;5.97;;;3.13;;
27039;SDS011;14589;51.578;7.306;2023-04-28T12:11:21;6.20;;;2.35;;
27039;SDS011;14589;51.578;7.306;2023-04-28T12:14:02;5.05;;;3.03;;
27039;SDS011;14589;51.578;7.306;2023-04-28T12:16:40;5.20;;;2.72;;
27039;SDS011;14589;51.578;7.306;2023-04-28T12:19:13;6.65;;;3.47;;
27039;SDS011;14589;51.578;7.306;2023-04-28T12:25:07;5.70;;;2.88;;
27039;SDS011;14589;51.578;7.306;2023-04-28T12:27:39;5.68;;;3.25;;
27039;SDS011;14589;51.578;7.306;2023-04-28T12:32:49;6.47;;;3.53;;
27039;SDS011;14589;51.578;7.306;2023-04-28T12:35:23;8.95;;;5.82;;
27039;SDS011;14589;51.578;7.306;2023-04-28T12:37:55;8.80;;;5.07;;
27039;SDS011;14589;51.578;7.306;2023-04-28T12:40:29;10.05;;;5.38;;
27039;SDS011;14589;51.578;7.306;2023-04-28T12:43:00;7.40;;;4.30;;
27039;SDS011;14589;51.578;7.306;2023-04-28T12:45:30;9.45;;;6.38;;
27039;SDS011;14589;51.578;7.306;2023-04-28T12:48:02;8.40;;;5.25;;
27039;SDS011;14589;51.578;7.306;2023-04-28T12:50:32;9.27;;;5.90;;
27039;SDS011;14589;51.578;7.306;2023-04-28T12:53:03;10.73;;;5.82;;
27039;SDS011;14589;51.578;7.306;2023-04-28T12:55:33;10.73;;;5.65;;
27039;SDS011;14589;51.578;7.306;2023-04-28T12:58:04;11.57;;;6.45;;
27039;SDS011;14589;51.578;7.306;2023-04-28T13:00:34;13.15;;;6.85;;
27039;SDS011;14589;51.578;7.306;2023-04-28T13:03:05;24.30;;;13.27;;
27039;SDS011;14589;51.578;7.306;2023-04-28T13:05:35;20.48;;;10.55;;
27039;SDS011;14589;51.578;7.306;2023-04-28T13:08:06;20.27;;;10.80;;
27039;SDS011;14589;51.578;7.306;2023-04-28T13:10:36;13.00;;;8.15;;
27039;SDS011;14589;51.578;7.306;2023-04-28T13:13:08;13.57;;;8.73;;
27039;SDS011;14589;51.578;7.306;2023-04-28T13:15:38;12.30;;;7.00;;
27039;SDS011;14589;51.578;7.306;2023-04-28T13:18:09;11.07;;;6.85;;
27039;SDS011;14589;51.578;7.306;2023-04-28T13:20:39;10.65;;;6.93;;
27039;SDS011;14589;51.578;7.306;2023-04-28T13:23:09;14.32;;;9.30;;
27039;SDS011;14589;51.578;7.306;2023-04-28T13:25:40;11.68;;;8.60;;
27039;SDS011;14589;51.578;7.306;2023-04-28T13:28:10;14.48;;;11.13;;
27039;SDS011;14589;51.578;7.306;2023-04-28T13:30:42;11.32;;;8.05;;
27039;SDS011;14589;51.578;7.306;2023-04-28T13:33:12;16.08;;;10.18;;
27039;SDS011;14589;51.578;7.306;2023-04-28T13:35:43;15.57;;;9.88;;
27039;SDS011;14589;51.578;7.306;2023-04-28T13:38:13;13.85;;;9.45;;
27039;SDS011;14589;51.578;7.306;2023-04-28T13:40:44;12.40;;;9.07;;
27039;SDS011;14589;51.578;7.306;2023-04-28T13:43:15;11.50;;;8.18;;
27039;SDS011;14589;51.578;7.306;2023-04-28T13:45:45;12.32;;;8.63;;
27039;SDS011;14589;51.578;7.306;2023-04-28T13:48:16;11.35;;;7.50;;
27039;SDS011;14589;51.578;7.306;2023-04-28T13:50:47;11.15;;;8.25;;
27039;SDS011;14589;51.578;7.306;2023-04-28T13:53:17;11.35;;;7.38;;
27039;SDS011;14589;51.578;7.306;2023-04-28T13:55:48;11.68;;;8.45;;
27039;SDS011;14589;51.578;7.306;2023-04-28T13:58:20;11.38;;;8.07;;
27039;SDS011;14589;51.578;7.306;2023-04-28T14:00:51;11.05;;;8.73;;
27039;SDS011;14589;51.578;7.306;2023-04-28T14:03:23;9.65;;;7.15;;
27039;SDS011;14589;51.578;7.306;2023-04-28T14:05:54;13.10;;;8.10;;
27039;SDS011;14589;51.578;7.306;2023-04-28T14:08:26;10.52;;;6.55;;
27039;SDS011;14589;51.578;7.306;2023-04-28T14:10:56;13.15;;;8.52;;
27039;SDS011;14589;51.578;7.306;2023-04-28T14:13:27;13.57;;;8.57;;
27039;SDS011;14589;51.578;7.306;2023-04-28T14:15:58;12.57;;;8.35;;
27039;SDS011;14589;51.578;7.306;2023-04-28T14:18:29;13.90;;;8.52;;
27039;SDS011;14589;51.578;7.306;2023-04-28T14:20:59;10.80;;;7.85;;
27039;SDS011;14589;51.578;7.306;2023-04-28T14:23:31;12.32;;;8.27;;
27039;SDS011;14589;51.578;7.306;2023-04-28T14:26:01;12.93;;;7.90;;
27039;SDS011;14589;51.578;7.306;2023-04-28T14:28:31;12.60;;;9.57;;
27039;SDS011;14589;51.578;7.306;2023-04-28T14:31:02;11.02;;;7.60;;
27039;SDS011;14589;51.578;7.306;2023-04-28T14:33:35;11.18;;;8.00;;
27039;SDS011;14589;51.578;7.306;2023-04-28T14:36:06;10.77;;;7.13;;
27039;SDS011;14589;51.578;7.306;2023-04-28T14:38:37;9.68;;;6.65;;
27039;SDS011;14589;51.578;7.306;2023-04-28T14:41:07;10.02;;;6.30;;
27039;SDS011;14589;51.578;7.306;2023-04-28T14:43:37;9.20;;;6.07;;
27039;SDS011;14589;51.578;7.306;2023-04-28T14:46:09;7.65;;;5.50;;
27039;SDS011;14589;51.578;7.306;2023-04-28T14:48:40;10.02;;;7.80;;
27039;SDS011;14589;51.578;7.306;2023-04-28T14:51:10;9.75;;;6.50;;
27039;SDS011;14589;51.578;7.306;2023-04-28T14:53:40;8.60;;;6.40;;
27039;SDS011;14589;51.578;7.306;2023-04-28T14:56:11;7.32;;;5.40;;
27039;SDS011;14589;51.578;7.306;2023-04-28T14:58:41;7.95;;;5.28;;
27039;SDS011;14589;51.578;7.306;2023-04-28T15:01:12;9.77;;;6.88;;
27039;SDS011;14589;51.578;7.306;2023-04-28T15:03:42;8.73;;;6.00;;
27039;SDS011;14589;51.578;7.306;2023-04-28T15:06:13;9.15;;;5.38;;
27039;SDS011;14589;51.578;7.306;2023-04-28T15:08:43;7.70;;;5.57;;
27039;SDS011;14589;51.578;7.306;2023-04-28T15:11:14;8.13;;;6.20;;
27039;SDS011;14589;51.578;7.306;2023-04-28T15:13:44;11.77;;;8.65;;
27039;SDS011;14589;51.578;7.306;2023-04-28T15:16:15;7.43;;;5.60;;
27039;SDS011;14589;51.578;7.306;2023-04-28T15:18:46;11.93;;;7.35;;
27039;SDS011;14589;51.578;7.306;2023-04-28T15:21:17;10.15;;;7.85;;
27039;SDS011;14589;51.578;7.306;2023-04-28T15:23:48;10.98;;;6.72;;
27039;SDS011;14589;51.578;7.306;2023-04-28T15:26:18;9.00;;;5.47;;
27039;SDS011;14589;51.578;7.306;2023-04-28T15:28:49;7.53;;;4.50;;
27039;SDS011;14589;51.578;7.306;2023-04-28T15:31:19;5.78;;;4.10;;
27039;SDS011;14589;51.578;7.306;2023-04-28T15:33:52;6.22;;;3.35;;
27039;SDS011;14589;51.578;7.306;2023-04-28T15:36:23;3.45;;;2.45;;
27039;SDS011;14589;51.578;7.306;2023-04-28T15:38:53;4.80;;;3.13;;
27039;SDS011;14589;51.578;7.306;2023-04-28T15:41:25;3.67;;;2.65;;
27039;SDS011;14589;51.578;7.306;2023-04-28T15:43:55;3.45;;;1.85;;
27039;SDS011;14589;51.578;7.306;2023-04-28T15:46:27;3.42;;;2.17;;
27039;SDS011;14589;51.578;7.306;2023-04-28T15:48:58;3.10;;;1.88;;
27039;SDS011;14589;51.578;7.306;2023-04-28T15:51:29;6.60;;;2.80;;
27039;SDS011;14589;51.578;7.306;2023-04-28T15:53:59;5.43;;;3.20;;
27039;SDS011;14589;51.578;7.306;2023-04-28T15:56:29;4.63;;;2.92;;
27039;SDS011;14589;51.578;7.306;2023-04-28T15:59:00;5.47;;;3.70;;
27039;SDS011;14589;51.578;7.306;2023-04-28T16:01:30;6.03;;;3.60;;
27039;SDS011;14589;51.578;7.306;2023-04-28T16:04:01;5.97;;;3.53;;
27039;SDS011;14589;51.578;7.306;2023-04-28T16:06:31;7.20;;;3.83;;
27039;SDS011;14589;51.578;7.306;2023-04-28T16:09:02;4.47;;;2.67;;
27039;SDS011;14589;51.578;7.306;2023-04-28T16:11:33;4.10;;;2.42;;
27039;SDS011;14589;51.578;7.306;2023-04-28T16:14:03;3.60;;;2.33;;
27039;SDS011;14589;51.578;7.306;2023-04-28T16:16:33;5.55;;;3.30;;
27039;SDS011;14589;51.578;7.306;2023-04-28T16:19:04;3.97;;;2.13;;
27039;SDS011;14589;51.578;7.306;2023-04-28T16:21:34;3.50;;;1.88;;
27039;SDS011;14589;51.578;7.306;2023-04-28T16:24:05;3.67;;;1.60;;
27039;SDS011;14589;51.578;7.306;2023-04-28T16:26:35;4.05;;;2.38;;
27039;SDS011;14589;51.578;7.306;2023-04-28T16:29:05;3.15;;;1.33;;
27039;SDS011;14589;51.578;7.306;2023-04-28T16:31:36;2.78;;;1.48;;
27039;SDS011;14589;51.578;7.306;2023-04-28T16:34:06;3.45;;;1.63;;
27039;SDS011;14589;51.578;7.306;2023-04-28T16:36:37;2.50;;;1.25;;
27039;SDS011;14589;51.578;7.306;2023-04-28T16:39:09;2.88;;;1.58;;
27039;SDS011;14589;51.578;7.306;2023-04-28T16:41:39;2.72;;;1.15;;
27039;SDS011;14589;51.578;7.306;2023-04-28T16:44:10;3.67;;;1.75;;
27039;SDS011;14589;51.578;7.306;2023-04-28T16:46:41;4.32;;;1.50;;
27039;SDS011;14589;51.578;7.306;2023-04-28T16:49:11;2.53;;;1.40;;
27039;SDS011;14589;51.578;7.306;2023-04-28T16:51:53;2.88;;;1.00;;
27039;SDS011;14589;51.578;7.306;2023-04-28T16:54:33;3.08;;;1.38;;
27039;SDS011;14589;51.578;7.306;2023-04-28T16:57:03;4.18;;;0.93;;
27039;SDS011;14589;51.578;7.306;2023-04-28T16:59:35;3.40;;;1.02;;
27039;SDS011;14589;51.578;7.306;2023-04-28T17:02:06;2.75;;;1.23;;
27039;SDS011;14589;51.578;7.306;2023-04-28T17:04:36;3.35;;;1.27;;
27039;SDS011;14589;51.578;7.306;2023-04-28T17:07:07;2.85;;;1.13;;
27039;SDS011;14589;51.578;7.306;2023-04-28T17:09:37;3.10;;;1.33;;
27039;SDS011;14589;51.578;7.306;2023-04-28T17:12:07;2.70;;;2.00;;
27039;SDS011;14589;51.578;7.306;2023-04-28T17:14:38;5.28;;;3.85;;
27039;SDS011;14589;51.578;7.306;2023-04-28T17:17:08;2.53;;;1.13;;
27039;SDS011;14589;51.578;7.306;2023-04-28T17:19:39;3.22;;;1.63;;
27039;SDS011;14589;51.578;7.306;2023-04-28T17:22:10;2.83;;;1.23;;
27039;SDS011;14589;51.578;7.306;2023-04-28T17:24:41;3.13;;;1.40;;
27039;SDS011;14589;51.578;7.306;2023-04-28T17:27:13;3.65;;;1.55;;
27039;SDS011;14589;51.578;7.306;2023-04-28T17:29:44;3.00;;;1.25;;
27039;SDS011;14589;51.578;7.306;2023-04-28T17:32:14;2.58;;;0.68;;
27039;SDS011;14589;51.578;7.306;2023-04-28T17:34:44;3.50;;;1.33;;
27039;SDS011;14589;51.578;7.306;2023-04-28T17:37:15;2.92;;;1.17;;
27039;SDS011;14589;51.578;7.306;2023-04-28T17:39:48;4.35;;;1.50;;
27039;SDS011;14589;51.578;7.306;2023-04-28T17:42:19;4.03;;;1.15;;
27039;SDS011;14589;51.578;7.306;2023-04-28T17:44:49;5.13;;;1.95;;
27039;SDS011;14589;51.578;7.306;2023-04-28T17:47:20;4.10;;;1.33;;
27039;SDS011;14589;51.578;7.306;2023-04-28T17:49:50;3.70;;;1.52;;
27039;SDS011;14589;51.578;7.306;2023-04-28T17:52:21;2.97;;;1.02;;
27039;SDS011;14589;51.578;7.306;2023-04-28T17:54:51;2.28;;;0.73;;
27039;SDS011;14589;51.578;7.306;2023-04-28T17:57:22;2.63;;;1.00;;
27039;SDS011;14589;51.578;7.306;2023-04-28T17:59:52;2.85;;;1.15;;
27039;SDS011;14589;51.578;7.306;2023-04-28T18:02:22;2.67;;;1.17;;
27039;SDS011;14589;51.578;7.306;2023-04-28T18:04:53;2.20;;;0.80;;
27039;SDS011;14589;51.578;7.306;2023-04-28T18:07:23;3.05;;;1.52;;
27039;SDS011;14589;51.578;7.306;2023-04-28T18:09:54;2.20;;;1.05;;
27039;SDS011;14589;51.578;7.306;2023-04-28T18:12:26;3.33;;;1.48;;
27039;SDS011;14589;51.578;7.306;2023-04-28T18:14:56;2.58;;;0.60;;
27039;SDS011;14589;51.578;7.306;2023-04-28T18:17:27;4.22;;;1.27;;
27039;SDS011;14589;51.578;7.306;2023-04-28T18:19:57;2.70;;;0.82;;
27039;SDS011;14589;51.578;7.306;2023-04-28T18:22:27;2.47;;;1.17;;
27039;SDS011;14589;51.578;7.306;2023-04-28T18:24:58;3.83;;;1.58;;
27039;SDS011;14589;51.578;7.306;2023-04-28T18:27:28;2.83;;;1.30;;
27039;SDS011;14589;51.578;7.306;2023-04-28T18:29:59;4.30;;;2.20;;
27039;SDS011;14589;51.578;7.306;2023-04-28T18:32:30;3.47;;;1.40;;
27039;SDS011;14589;51.578;7.306;2023-04-28T18:35:02;3.75;;;1.58;;
27039;SDS011;14589;51.578;7.306;2023-04-28T18:37:33;3.20;;;1.65;;
27039;SDS011;14589;51.578;7.306;2023-04-28T18:40:03;2.78;;;1.15;;
27039;SDS011;14589;51.578;7.306;2023-04-28T18:42:34;3.17;;;1.58;;
27039;SDS011;14589;51.578;7.306;2023-04-28T18:45:04;3.40;;;1.75;;
27039;SDS011;14589;51.578;7.306;2023-04-28T18:47:35;3.08;;;1.60;;
27039;SDS011;14589;51.578;7.306;2023-04-28T18:50:06;4.18;;;1.77;;
27039;SDS011;14589;51.578;7.306;2023-04-28T18:52:37;2.85;;;1.55;;
27039;SDS011;14589;51.578;7.306;2023-04-28T18:55:07;4.18;;;1.30;;
27039;SDS011;14589;51.578;7.306;2023-04-28T18:57:38;4.47;;;1.98;;
27039;SDS011;14589;51.578;7.306;2023-04-28T19:00:09;4.60;;;1.40;;
27039;SDS011;14589;51.578;7.306;2023-04-28T19:02:40;5.10;;;1.70;;
27039;SDS011;14589;51.578;7.306;2023-04-28T19:05:11;5.60;;;3.33;;
27039;SDS011;14589;51.578;7.306;2023-04-28T19:07:42;6.25;;;3.38;;
27039;SDS011;14589;51.578;7.306;2023-04-28T19:10:13;6.60;;;3.90;;
27039;SDS011;14589;51.578;7.306;2023-04-28T19:12:43;9.15;;;5.30;;
27039;SDS011;14589;51.578;7.306;2023-04-28T19:15:13;8.13;;;3.95;;
27039;SDS011;14589;51.578;7.306;2023-04-28T19:17:44;9.80;;;6.45;;
27039;SDS011;14589;51.578;7.306;2023-04-28T19:20:14;7.28;;;3.85;;
27039;SDS011;14589;51.578;7.306;2023-04-28T19:22:46;10.15;;;6.15;;
27039;SDS011;14589;51.578;7.306;2023-04-28T19:25:17;11.10;;;6.53;;
27039;SDS011;14589;51.578;7.306;2023-04-28T19:27:47;13.38;;;6.60;;
27039;SDS011;14589;51.578;7.306;2023-04-28T19:30:18;10.52;;;4.78;;
27039;SDS011;14589;51.578;7.306;2023-04-28T19:32:48;17.00;;;5.10;;
27039;SDS011;14589;51.578;7.306;2023-04-28T19:35:19;6.85;;;4.60;;
27039;SDS011;14589;51.578;7.306;2023-04-28T19:37:50;9.98;;;5.75;;
27039;SDS011;14589;51.578;7.306;2023-04-28T19:40:20;8.95;;;5.13;;
27039;SDS011;14589;51.578;7.306;2023-04-28T19:42:51;10.05;;;6.00;;
27039;SDS011;14589;51.578;7.306;2023-04-28T19:45:21;10.50;;;5.85;;
27039;SDS011;14589;51.578;7.306;2023-04-28T19:47:52;12.30;;;6.95;;
27039;SDS011;14589;51.578;7.306;2023-04-28T19:50:24;10.70;;;5.85;;
27039;SDS011;14589;51.578;7.306;2023-04-28T19:52:55;10.52;;;5.93;;
27039;SDS011;14589;51.578;7.306;2023-04-28T19:55:25;8.65;;;5.28;;